Time;durP1;ratioP1;P1;durP2;ratioP2;P2;SDS_P1;SDS_P2;PMS_P1;PMS_P2;Temp;Humidity;BMP_temperature;BMP_pressure;BME280_temperature;BME280_humidity;BME280_pressure;Samples;Min_cycle;Max_cycle;Signal;HPM_P1;HPM_P2
2021/05/10 00:02:15;;;;;;;2.25;1.08;;;;;;;-143.98;100.00;68091.63;5072022;28;20656;-86
2021/05/10 00:04:49;;;;;;;6.60;1.00;;;;;;;-143.98;100.00;68091.63;5074363;28;20052;-87
2021/05/10 00:07:18;;;;;;;6.57;1.33;;;;;;;-143.98;100.00;68091.63;5070935;28;20078;-86
2021/05/10 00:10:06;;;;;;;2.25;1.25;;;;;;;-143.98;100.00;68091.63;5086351;28;20082;-87
2021/05/10 00:12:33;;;;;;;2.15;1.15;;;;;;;-143.98;100.00;68091.63;5086517;28;20056;-86
2021/05/10 00:14:59;;;;;;;3.08;0.88;;;;;;;-143.98;100.00;68091.63;5070569;28;20055;-86
2021/05/10 00:17:29;;;;;;;5.45;1.42;;;;;;;-143.98;100.00;68091.63;5086560;28;20107;-87
2021/05/10 00:19:59;;;;;;;2.88;1.10;;;;;;;-143.98;100.00;68091.63;5069571;28;20052;-86
2021/05/10 00:22:25;;;;;;;4.10;1.42;;;;;;;-143.98;100.00;68091.63;5086388;28;20040;-86
2021/05/10 00:24:59;;;;;;;1.73;1.00;;;;;;;-143.98;100.00;68091.63;5085572;28;20404;-87
2021/05/10 00:27:26;;;;;;;6.50;1.08;;;;;;;-143.98;100.00;68091.63;5085531;28;20075;-86
2021/05/10 00:29:53;;;;;;;2.35;1.10;;;;;;;-143.98;100.00;68091.63;5068376;28;20063;-86
2021/05/10 00:32:20;;;;;;;1.88;1.17;;;;;;;-143.98;100.00;68091.63;5067663;28;20056;-86
2021/05/10 00:34:55;;;;;;;;;;;;;;;-143.98;100.00;68091.63;5071508;28;20056;-86
2021/05/10 00:37:21;;;;;;;2.72;0.90;;;;;;;-143.98;100.00;68091.63;5084675;28;20219;-86
2021/05/10 00:39:51;;;;;;;3.22;1.27;;;;;;;-143.98;100.00;68091.63;5068311;28;20139;-87
2021/05/10 00:42:24;;;;;;;5.38;1.10;;;;;;;-143.98;100.00;68091.63;5067438;28;20059;-86
2021/05/10 00:44:54;;;;;;;1.98;0.90;;;;;;;-143.98;100.00;68091.63;5069029;28;20052;-87
2021/05/10 00:47:27;;;;;;;3.97;1.20;;;;;;;-143.98;100.00;68091.63;5068344;28;20068;-87
2021/05/10 00:49:55;;;;;;;1.92;1.05;;;;;;;-143.98;100.00;68091.63;5067847;28;20055;-86
2021/05/10 00:52:24;;;;;;;2.30;1.05;;;;;;;-143.98;100.00;68091.63;5067111;28;20052;-87
2021/05/10 00:54:55;;;;;;;4.30;1.10;;;;;;;-143.98;100.00;68091.63;5066992;28;20083;-86
2021/05/10 00:57:22;;;;;;;4.32;1.60;;;;;;;-143.98;100.00;68091.63;5084892;28;20316;-86
2021/05/10 00:59:52;;;;;;;4.75;0.95;;;;;;;-143.98;100.00;68091.63;5069672;28;20415;-87
2021/05/10 01:02:25;;;;;;;2.20;0.95;;;;;;;-143.98;100.00;68091.63;5084768;28;20071;-87
2021/05/10 01:04:59;;;;;;;1.17;0.77;;;;;;;-143.98;100.00;68091.63;5082739;28;20062;-87
2021/05/10 01:07:26;;;;;;;5.13;1.08;;;;;;;-143.98;100.00;68091.63;5066642;28;20083;-87
2021/05/10 01:09:56;;;;;;;3.90;1.10;;;;;;;-143.98;100.00;68091.63;5072688;28;20056;-86
2021/05/10 01:12:22;;;;;;;5.60;1.13;;;;;;;-143.98;100.00;68091.63;5076940;28;20420;-86
2021/05/10 01:14:53;;;;;;;1.63;0.88;;;;;;;-143.98;100.00;68091.63;5095008;28;20121;-85
2021/05/10 01:17:26;;;;;;;3.53;1.25;;;;;;;-143.98;100.00;68091.63;5069640;28;20058;-86
2021/05/10 01:19:53;;;;;;;2.15;1.08;;;;;;;-143.98;100.00;68091.63;5068723;28;20051;-86
2021/05/10 01:22:21;;;;;;;6.50;1.40;;;;;;;-143.98;100.00;68091.63;5068550;28;20138;-86
2021/05/10 01:24:51;;;;;;;2.50;1.25;;;;;;;-143.98;100.00;68091.63;5084921;28;20044;-86
2021/05/10 01:27:25;;;;;;;3.92;1.20;;;;;;;-143.98;100.00;68091.63;5068884;28;20066;-86
2021/05/10 01:29:56;;;;;;;4.57;1.10;;;;;;;-143.98;100.00;68091.63;5085636;28;20056;-86
2021/05/10 01:32:23;;;;;;;2.75;1.23;;;;;;;-143.98;100.00;68091.63;5066996;28;20048;-86
2021/05/10 01:34:59;;;;;;;5.03;1.13;;;;;;;-143.98;100.00;68091.63;5068938;28;20066;-86
2021/05/10 01:37:26;;;;;;;4.25;1.00;;;;;;;-143.98;100.00;68091.63;5067833;28;20048;-86
2021/05/10 01:39:59;;;;;;;6.85;1.02;;;;;;;-143.98;100.00;68091.63;5068728;28;20111;-87
2021/05/10 01:42:26;;;;;;;2.92;1.10;;;;;;;-143.98;100.00;68091.63;5067204;28;20075;-87
2021/05/10 01:44:53;;;;;;;7.85;1.33;;;;;;;-143.98;100.00;68091.63;5084815;28;20051;-87
2021/05/10 01:47:29;;;;;;;4.22;1.73;;;;;;;-143.98;100.00;68091.63;5069796;28;20048;-87
2021/05/10 01:49:56;;;;;;;3.33;1.30;;;;;;;-143.98;100.00;68091.63;5096035;28;20040;-87
2021/05/10 01:52:24;;;;;;;6.20;1.33;;;;;;;-143.98;100.00;68091.63;5082424;28;20040;-86
2021/05/10 01:54:53;;;;;;;5.15;1.77;;;;;;;-143.98;100.00;68091.63;5067803;28;20078;-85
2021/05/10 01:57:26;;;;;;;4.25;1.42;;;;;;;-143.98;100.00;68091.63;5083175;28;20055;-85
2021/05/10 01:59:53;;;;;;;1.52;0.93;;;;;;;-143.98;100.00;68091.63;5083172;28;20117;-85
2021/05/10 02:02:20;;;;;;;4.93;1.70;;;;;;;-143.98;100.00;68091.63;5065419;28;20134;-85
2021/05/10 02:05:11;;;;;;;6.22;1.50;;;;;;;-143.98;100.00;68091.63;5069495;28;20066;-86
2021/05/10 02:07:46;;;;;;;4.20;1.10;;;;;;;-143.98;100.00;68091.63;5067020;28;20358;-85
2021/05/10 02:10:17;;;;;;;2.13;1.17;;;;;;;-143.98;100.00;68091.63;5082877;28;20120;-86
2021/05/10 02:12:57;;;;;;;7.75;1.38;;;;;;;-143.98;100.00;68091.63;5067018;28;20044;-87
2021/05/10 02:15:35;;;;;;;3.30;1.35;;;;;;;-143.98;100.00;68091.63;5082997;28;20039;-87
2021/05/10 02:18:06;;;;;;;3.78;1.10;;;;;;;-143.98;100.00;68091.63;5077691;28;20123;-86
2021/05/10 02:20:36;;;;;;;4.15;1.40;;;;;;;-143.98;100.00;68091.63;5065864;28;20044;-86
2021/05/10 02:23:04;;;;;;;6.03;1.20;;;;;;;-143.98;100.00;68091.63;5065238;28;20056;-86
2021/05/10 02:25:32;;;;;;;2.00;0.95;;;;;;;-143.98;100.00;68091.63;5080525;28;20058;-86
2021/05/10 02:28:16;;;;;;;2.75;1.45;;;;;;;-143.98;100.00;68091.63;5091618;28;20056;-85
2021/05/10 02:30:43;;;;;;;2.42;1.42;;;;;;;-143.98;100.00;68091.63;5066979;28;20442;-85
2021/05/10 02:33:15;;;;;;;3.30;1.40;;;;;;;-143.98;100.00;68091.63;5065939;28;20056;-85
2021/05/10 02:35:42;;;;;;;5.28;1.20;;;;;;;-143.98;100.00;68091.63;5066768;28;20052;-85
2021/05/10 02:38:10;;;;;;;1.70;1.10;;;;;;;-143.98;100.00;68091.63;5067981;28;20047;-85
2021/05/10 02:40:37;;;;;;;2.90;1.40;;;;;;;-143.98;100.00;68091.63;5065939;28;20293;-85
2021/05/10 02:43:04;;;;;;;3.03;1.33;;;;;;;-143.98;100.00;68091.63;5082072;28;20052;-85
2021/05/10 02:45:30;;;;;;;6.55;1.52;;;;;;;-143.98;100.00;68091.63;5065994;28;20051;-86
2021/05/10 02:47:58;;;;;;;2.80;1.27;;;;;;;-143.98;100.00;68091.63;5079431;28;20028;-85
2021/05/10 02:50:25;;;;;;;12.85;2.10;;;;;;;-143.98;100.00;68091.63;5093136;28;20048;-86
2021/05/10 02:52:53;;;;;;;6.30;1.38;;;;;;;-143.98;100.00;68091.63;5098849;28;20052;-85
2021/05/10 02:55:25;;;;;;;6.85;1.45;;;;;;;-143.98;100.00;68091.63;5088854;28;20416;-85
2021/05/10 02:57:54;;;;;;;4.05;1.30;;;;;;;-143.98;100.00;68091.63;5086894;28;20056;-85
2021/05/10 03:00:25;;;;;;;10.65;1.98;;;;;;;-143.98;100.00;68091.63;5097762;28;20067;-85
2021/05/10 03:02:58;;;;;;;2.95;1.40;;;;;;;-143.98;100.00;68091.63;5099040;28;20079;-85
2021/05/10 03:05:25;;;;;;;2.25;1.20;;;;;;;-143.98;100.00;68091.63;5105252;28;20455;-86
2021/05/10 03:07:52;;;;;;;3.20;1.80;;;;;;;-143.98;100.00;68091.63;5103524;28;20052;-86
2021/05/10 03:10:28;;;;;;;8.75;1.63;;;;;;;-143.98;100.00;68091.63;5086653;28;20052;-86
2021/05/10 03:12:54;;;;;;;4.75;1.65;;;;;;;-143.98;100.00;68091.63;5086008;28;20343;-86
2021/05/10 03:15:22;;;;;;;3.10;1.33;;;;;;;-143.98;100.00;68091.63;5087245;28;20063;-85
2021/05/10 03:17:51;;;;;;;2.35;1.38;;;;;;;-143.98;100.00;68091.63;5095703;28;20051;-86
2021/05/10 03:20:19;;;;;;;4.32;1.10;;;;;;;-143.98;100.00;68091.63;5095105;28;20048;-86
2021/05/10 03:22:51;;;;;;;3.72;1.75;;;;;;;-143.98;100.00;68091.63;5088021;28;20051;-86
2021/05/10 03:25:35;;;;;;;4.90;1.63;;;;;;;-143.98;100.00;68091.63;5088459;28;20047;-86
2021/05/10 03:28:02;;;;;;;6.15;1.30;;;;;;;-143.98;100.00;68091.63;5128943;28;20392;-86
2021/05/10 03:30:29;;;;;;;3.55;1.35;;;;;;;-143.98;100.00;68091.63;5094783;28;20051;-86
2021/05/10 03:32:59;;;;;;;3.95;1.50;;;;;;;-143.98;100.00;68091.63;5090744;28;20090;-86
2021/05/10 03:35:26;;;;;;;3.20;1.27;;;;;;;-143.98;100.00;68091.63;5104852;28;20066;-85
2021/05/10 03:37:52;;;;;;;3.05;1.10;;;;;;;-143.98;100.00;68091.63;5070601;28;20063;-86
2021/05/10 03:40:19;;;;;;;6.53;1.52;;;;;;;-143.98;100.00;68091.63;5071156;28;20108;-86
2021/05/10 03:42:46;;;;;;;3.80;1.55;;;;;;;-143.98;100.00;68091.63;5084590;28;20062;-86
2021/05/10 03:45:18;;;;;;;3.13;1.55;;;;;;;-143.98;100.00;68091.63;5068374;28;20063;-87
2021/05/10 03:48:02;;;;;;;9.10;1.35;;;;;;;-143.98;100.00;68091.63;5069159;28;20183;-87
2021/05/10 03:50:28;;;;;;;6.10;1.50;;;;;;;-143.98;100.00;68091.63;5092467;28;20044;-87
2021/05/10 03:52:55;;;;;;;7.03;1.40;;;;;;;-143.98;100.00;68091.63;5070757;28;20207;-87
2021/05/10 03:55:37;;;;;;;7.10;1.38;;;;;;;-143.98;100.00;68091.63;5089443;28;20385;-86
2021/05/10 03:58:07;;;;;;;4.43;1.40;;;;;;;-143.98;100.00;68091.63;5087088;28;20439;-87
2021/05/10 04:00:32;;;;;;;5.88;1.63;;;;;;;-143.98;100.00;68091.63;5086016;28;20031;-87
2021/05/10 04:03:00;;;;;;;6.10;1.30;;;;;;;-143.98;100.00;68091.63;5068399;28;20040;-87
2021/05/10 04:08:12;;;;;;;3.53;1.40;;;;;;;-143.98;100.00;68091.63;5084607;28;20064;-87
2021/05/10 04:11:06;;;;;;;3.60;1.48;;;;;;;-143.98;100.00;68091.63;5071280;28;20055;-87
2021/05/10 04:13:42;;;;;;;3.08;1.27;;;;;;;-143.98;100.00;68091.63;5069874;28;20345;-87
2021/05/10 04:16:08;;;;;;;6.00;1.30;;;;;;;-143.98;100.00;68091.63;5087391;28;20144;-87
2021/05/10 04:18:49;;;;;;;5.75;1.75;;;;;;;-143.98;100.00;68091.63;5069061;28;20088;-87
2021/05/10 04:21:22;;;;;;;4.70;1.42;;;;;;;-143.98;100.00;68091.63;5083043;28;20249;-86
2021/05/10 04:23:53;;;;;;;3.40;1.80;;;;;;;-143.98;100.00;68091.63;5084461;28;20048;-87
2021/05/10 04:26:20;;;;;;;2.80;1.48;;;;;;;-143.98;100.00;68091.63;5083917;28;20048;-86
2021/05/10 04:28:49;;;;;;;4.97;1.60;;;;;;;-143.98;100.00;68091.63;5076252;28;20048;-87
2021/05/10 04:31:45;;;;;;;4.30;1.50;;;;;;;-143.98;100.00;68091.63;5068701;28;20044;-86
2021/05/10 04:34:11;;;;;;;10.30;1.83;;;;;;;-143.98;100.00;68091.63;5067639;28;20446;-86
2021/05/10 04:36:44;;;;;;;10.02;2.80;;;;;;;-143.98;100.00;68091.63;5084700;28;20435;-86
2021/05/10 04:39:12;;;;;;;3.33;1.33;;;;;;;-143.98;100.00;68091.63;5084242;28;20154;-86
2021/05/10 04:41:41;;;;;;;10.23;1.48;;;;;;;-143.98;100.00;68091.63;5068578;28;20062;-87
2021/05/10 04:44:09;;;;;;;5.80;1.63;;;;;;;-143.98;100.00;68091.63;5083449;28;20143;-86
2021/05/10 04:46:39;;;;;;;6.47;1.63;;;;;;;-143.98;100.00;68091.63;5067295;28;20130;-86
2021/05/10 04:49:05;;;;;;;5.63;1.33;;;;;;;-143.98;100.00;68091.63;5083957;28;20052;-87
2021/05/10 04:51:34;;;;;;;3.90;1.60;;;;;;;-143.98;100.00;68091.63;5083097;28;20063;-87
2021/05/10 04:54:00;;;;;;;8.35;1.40;;;;;;;-143.98;100.00;68091.63;5100963;28;20048;-86
2021/05/10 04:56:33;;;;;;;2.63;1.30;;;;;;;-143.98;100.00;68091.63;5083714;28;20245;-87
2021/05/10 04:59:00;;;;;;;2.95;1.40;;;;;;;-143.98;100.00;68091.63;5085986;28;20100;-85
2021/05/10 05:01:33;;;;;;;3.83;1.30;;;;;;;-143.98;100.00;68091.63;5069192;28;20063;-87
2021/05/10 05:04:02;;;;;;;3.65;1.33;;;;;;;-143.98;100.00;68091.63;5071593;28;20048;-86
2021/05/10 05:06:28;;;;;;;3.30;1.25;;;;;;;-143.98;100.00;68091.63;5107123;27;20063;-86
2021/05/10 05:08:55;;;;;;;2.88;1.50;;;;;;;-143.98;100.00;68091.63;5100027;27;20117;-86
2021/05/10 05:11:24;;;;;;;8.23;1.38;;;;;;;-143.98;100.00;68091.63;5099675;27;20099;-86
2021/05/10 05:13:57;;;;;;;3.92;1.33;;;;;;;-143.98;100.00;68091.63;5407439;22;20060;-86
2021/05/10 05:16:43;;;;;;;3.92;1.50;;;;;;;-143.98;100.00;68091.63;5098394;28;20042;-86
2021/05/10 05:19:13;;;;;;;3.35;1.30;;;;;;;-143.98;100.00;68091.63;5093014;28;20127;-85
2021/05/10 05:21:45;;;;;;;4.85;1.40;;;;;;;-143.98;100.00;68091.63;5070257;28;20336;-87
2021/05/10 05:24:19;;;;;;;5.63;1.40;;;;;;;-143.98;100.00;68091.63;5071116;28;20095;-86
2021/05/10 05:26:51;;;;;;;3.92;1.38;;;;;;;-143.98;100.00;68091.63;5089544;28;20043;-86
2021/05/10 05:29:22;;;;;;;3.85;1.15;;;;;;;-143.98;100.00;68091.63;5074413;28;20082;-86
2021/05/10 05:31:57;;;;;;;5.47;1.58;;;;;;;-143.98;100.00;68091.63;5137009;22;20040;-89
2021/05/10 05:34:24;;;;;;;3.80;1.00;;;;;;;-143.98;100.00;68091.63;5032409;28;20039;-87
2021/05/10 05:36:52;;;;;;;1.80;1.23;;;;;;;-143.98;100.00;68091.63;5033084;28;20188;-85
2021/05/10 05:39:19;;;;;;;3.13;1.25;;;;;;;-143.98;100.00;68091.63;5008090;28;20065;-86
2021/05/10 05:41:49;;;;;;;3.03;1.20;;;;;;;-143.98;100.00;68091.63;5010872;28;20103;-87
2021/05/10 05:44:19;;;;;;;5.45;1.52;;;;;;;-143.98;100.00;68091.63;5024523;28;20087;-86
2021/05/10 05:46:49;;;;;;;5.35;1.23;;;;;;;-143.98;100.00;68091.63;5027720;28;20046;-87
2021/05/10 05:49:30;;;;;;;3.28;1.30;;;;;;;-143.98;100.00;68091.63;5023538;28;20113;-88
2021/05/10 05:51:58;;;;;;;5.00;1.38;;;;;;;-143.98;100.00;68091.63;5041127;28;20110;-86
2021/05/10 05:54:26;;;;;;;5.10;1.60;;;;;;;-143.98;100.00;68091.63;5024375;28;20053;-86
2021/05/10 05:56:53;;;;;;;2.95;1.13;;;;;;;-143.98;100.00;68091.63;5022071;28;20045;-87
2021/05/10 05:59:20;;;;;;;2.30;1.20;;;;;;;-143.98;100.00;68091.63;5005241;28;20049;-86
2021/05/10 06:01:49;;;;;;;2.78;1.10;;;;;;;-143.98;100.00;68091.63;5003841;28;20055;-86
2021/05/10 06:04:16;;;;;;;3.58;1.50;;;;;;;-143.98;100.00;68091.63;5023512;28;20142;-85
2021/05/10 06:06:43;;;;;;;6.55;1.75;;;;;;;-143.98;100.00;68091.63;5039894;28;20385;-86
2021/05/10 06:09:12;;;;;;;5.53;1.50;;;;;;;-143.98;100.00;68091.63;5024096;28;20221;-86
2021/05/10 06:11:40;;;;;;;4.05;1.33;;;;;;;-143.98;100.00;68091.63;5041296;28;20049;-86
2021/05/10 06:14:09;;;;;;;6.68;1.30;;;;;;;-143.98;100.00;68091.63;5015458;28;20085;-86
2021/05/10 06:16:38;;;;;;;3.75;1.23;;;;;;;-143.98;100.00;68091.63;5002901;28;20417;-87
2021/05/10 06:19:11;;;;;;;12.15;1.45;;;;;;;-143.98;100.00;68091.63;5009593;28;20049;-87
2021/05/10 06:21:41;;;;;;;7.35;1.10;;;;;;;-143.98;100.00;68091.63;5003798;28;20109;-87
2021/05/10 06:24:09;;;;;;;3.67;1.02;;;;;;;-143.98;100.00;68091.63;5004629;28;20139;-87
2021/05/10 06:26:43;;;;;;;8.35;1.33;;;;;;;-143.98;100.00;68091.63;5007936;28;20103;-87
2021/05/10 06:29:22;;;;;;;2.90;1.33;;;;;;;-143.98;100.00;68091.63;5028477;28;20080;-87
2021/05/10 06:31:52;;;;;;;5.75;1.30;;;;;;;-143.98;100.00;68091.63;5025541;28;20072;-87
2021/05/10 06:34:23;;;;;;;5.72;1.63;;;;;;;-143.98;100.00;68091.63;5027798;28;20120;-86
2021/05/10 06:37:19;;;;;;;9.95;1.45;;;;;;;-143.98;100.00;68091.63;5028772;28;20063;-86
2021/05/10 06:40:07;;;;;;;5.47;1.77;;;;;;;-143.98;100.00;68091.63;5039950;28;20057;-86
2021/05/10 06:42:53;;;;;;;6.18;1.58;;;;;;;-143.98;100.00;68091.63;5045474;28;20049;-87
2021/05/10 06:45:30;;;;;;;5.32;1.60;;;;;;;-143.98;100.00;68091.63;5026922;28;20057;-88
2021/05/10 06:48:14;;;;;;;;;;;;;;;-143.98;100.00;68091.63;5022997;28;20041;-87
2021/05/10 06:50:43;;;;;;;11.38;3.08;;;;;;;-143.98;100.00;68091.63;5024241;28;19945;-86
2021/05/10 06:53:11;;;;;;;13.27;2.45;;;;;;;-143.98;100.00;68091.63;5025840;28;20054;-86
2021/05/10 06:55:41;;;;;;;4.47;2.22;;;;;;;-143.98;100.00;68091.63;5024855;28;20080;-86
2021/05/10 06:58:09;;;;;;;4.28;2.20;;;;;;;-143.98;100.00;68091.63;5006271;28;20064;-87
2021/05/10 07:00:40;;;;;;;7.80;2.35;;;;;;;-143.98;100.00;68091.63;5006059;28;20053;-85
2021/05/10 07:03:10;;;;;;;3.28;1.48;;;;;;;-143.98;100.00;68091.63;5033733;28;20057;-86
2021/05/10 07:05:40;;;;;;;5.18;1.50;;;;;;;-143.98;100.00;68091.63;5035526;28;20117;-86
2021/05/10 07:08:08;;;;;;;4.82;1.65;;;;;;;-143.98;100.00;68091.63;5033117;28;20125;-87
2021/05/10 07:10:39;;;;;;;5.90;1.67;;;;;;;-143.98;100.00;68091.63;5030400;28;20045;-87
2021/05/10 07:13:08;;;;;;;3.90;1.58;;;;;;;-143.98;100.00;68091.63;5026935;28;20052;-86
2021/05/10 07:15:38;;;;;;;2.03;1.38;;;;;;;-143.98;100.00;68091.63;5043765;28;20153;-86
2021/05/10 07:18:15;;;;;;;11.88;2.10;;;;;;;-143.98;100.00;68091.63;5043568;28;20048;-87
2021/05/10 07:20:44;;;;;;;8.52;2.15;;;;;;;-143.98;100.00;68091.63;5045866;28;20138;-86
2021/05/10 07:23:18;;;;;;;8.00;2.58;;;;;;;-143.98;100.00;68091.63;5034067;28;20053;-87
2021/05/10 07:25:48;;;;;;;8.20;3.43;;;;;;;-143.98;100.00;68091.63;5039171;28;20041;-86
2021/05/10 07:28:16;;;;;;;8.18;3.00;;;;;;;-143.98;100.00;68091.63;5049991;28;20531;-86
2021/05/10 07:30:43;;;;;;;9.13;2.78;;;;;;;-143.98;100.00;68091.63;5021345;28;20228;-86
2021/05/10 07:33:10;;;;;;;11.88;3.05;;;;;;;-143.98;100.00;68091.63;5025433;28;20041;-86
2021/05/10 07:35:38;;;;;;;5.30;1.10;;;;;;;-143.98;100.00;68091.63;5039140;28;20426;-86
2021/05/10 07:38:18;;;;;;;1.95;0.93;;;;;;;-143.98;100.00;68091.63;5026684;28;20101;-86
2021/05/10 07:40:58;;;;;;;2.40;1.13;;;;;;;-143.98;100.00;68091.63;5026485;28;20144;-87
2021/05/10 07:43:28;;;;;;;5.28;0.98;;;;;;;-143.98;100.00;68091.63;5053185;28;20071;-87
2021/05/10 07:45:55;;;;;;;5.80;0.98;;;;;;;-143.98;100.00;68091.63;5040777;28;20304;-86
2021/05/10 07:48:43;;;;;;;2.00;1.27;;;;;;;-143.98;100.00;68091.63;5039971;28;20055;-87
2021/05/10 07:51:11;;;;;;;2.40;1.00;;;;;;;-143.98;100.00;68091.63;5040792;28;20056;-87
2021/05/10 07:53:38;;;;;;;2.63;0.90;;;;;;;-143.98;100.00;68091.63;5042397;28;20081;-86
2021/05/10 07:56:06;;;;;;;3.10;1.00;;;;;;;-143.98;100.00;68091.63;5037458;28;20073;-87
2021/05/10 07:58:54;;;;;;;6.47;1.80;;;;;;;-143.98;100.00;68091.63;5040042;28;20060;-87
2021/05/10 08:01:25;;;;;;;5.20;1.42;;;;;;;-143.98;100.00;68091.63;5038076;28;20060;-86
2021/05/10 08:03:54;;;;;;;5.22;1.45;;;;;;;-143.98;100.00;68091.63;5037707;28;20045;-87
2021/05/10 08:06:24;;;;;;;4.60;1.20;;;;;;;-143.98;100.00;68091.63;5054464;28;20056;-86
2021/05/10 08:09:06;;;;;;;6.43;1.33;;;;;;;-143.98;100.00;68091.63;5039306;28;20068;-87
2021/05/10 08:11:39;;;;;;;4.30;0.88;;;;;;;-143.98;100.00;68091.63;5062890;28;20084;-85
2021/05/10 08:14:13;;;;;;;4.97;1.70;;;;;;;-143.98;100.00;68091.63;5070732;28;20060;-86
2021/05/10 08:16:48;;;;;;;4.38;1.42;;;;;;;-143.98;100.00;68091.63;5050675;28;20238;-87
2021/05/10 08:19:30;;;;;;;5.18;1.08;;;;;;;-143.98;100.00;68091.63;5036143;28;20052;-87
2021/05/10 08:22:00;;;;;;;2.45;1.00;;;;;;;-143.98;100.00;68091.63;5061216;28;20045;-86
2021/05/10 08:24:33;;;;;;;4.28;1.00;;;;;;;-143.98;100.00;68091.63;5054301;28;20049;-87
2021/05/10 08:27:00;;;;;;;6.68;1.20;;;;;;;-143.98;100.00;68091.63;5050685;28;20056;-85
2021/05/10 08:29:33;;;;;;;3.40;1.02;;;;;;;-143.98;100.00;68091.63;5058155;28;20131;-87
2021/05/10 08:32:04;;;;;;;7.32;1.23;;;;;;;-143.98;100.00;68091.63;5032450;28;20120;-87
2021/05/10 08:34:34;;;;;;;8.32;1.17;;;;;;;-143.98;100.00;68091.63;5025160;28;20056;-87
2021/05/10 08:37:03;;;;;;;10.57;1.40;;;;;;;-143.98;100.00;68091.63;5026022;28;20049;-87
2021/05/10 08:39:33;;;;;;;12.77;1.40;;;;;;;-143.98;100.00;68091.63;5024990;28;20508;-86
2021/05/10 08:42:04;;;;;;;7.00;1.52;;;;;;;-143.98;100.00;68091.63;5041733;28;20478;-86
2021/05/10 08:44:32;;;;;;;3.05;1.10;;;;;;;-143.98;100.00;68091.63;5025675;28;20079;-87
2021/05/10 08:47:05;;;;;;;5.47;1.13;;;;;;;-143.98;100.00;68091.63;5041519;28;20085;-85
2021/05/10 08:49:36;;;;;;;4.90;1.13;;;;;;;-143.98;100.00;68091.63;5040768;28;20053;-85
2021/05/10 08:52:09;;;;;;;9.32;1.50;;;;;;;-143.98;100.00;68091.63;5023927;28;20143;-86
2021/05/10 08:55:27;;;;;;;3.20;0.82;;;;;;;-143.98;100.00;68091.63;5033193;28;20112;-88
2021/05/10 08:58:33;;;;;;;8.15;1.30;;;;;;;-143.98;100.00;68091.63;4991992;28;20046;-88
2021/05/10 09:06:34;;;;;;;5.78;1.17;;;;;;;-143.98;100.00;68091.63;5608812;22;20071;-86
2021/05/10 09:09:15;;;;;;;8.55;1.23;;;;;;;-143.98;100.00;68091.63;5065442;28;20104;-86
2021/05/10 09:12:21;;;;;;;10.15;1.80;;;;;;;-143.98;100.00;68091.63;5056566;28;20091;-88
2021/05/10 09:15:45;;;;;;;2.20;1.10;;;;;;;-143.98;100.00;68091.63;5086581;28;20108;-87
2021/05/10 09:19:10;;;;;;;3.78;1.08;;;;;;;-143.98;100.00;68091.63;5092417;28;20036;-86
2021/05/10 09:22:19;;;;;;;2.83;1.42;;;;;;;-143.98;100.00;68091.63;5082845;28;20186;-88
2021/05/10 09:26:19;;;;;;;4.68;1.17;;;;;;;-143.98;100.00;68091.63;5090271;28;20063;-88
2021/05/10 09:30:12;;;;;;;10.40;1.42;;;;;;;-143.98;100.00;68091.63;5073041;28;20079;-87
2021/05/10 09:37:46;;;;;;;1.53;1.00;;;;;;;-143.98;100.00;68091.63;5085993;28;20070;-86
2021/05/10 09:40:52;;;;;;;4.30;1.25;;;;;;;-143.98;100.00;68091.63;5086533;28;20076;-88
2021/05/10 09:44:21;;;;;;;;;;;;;;;;;;;;;
2021/05/10 09:47:04;;;;;;;4.57;1.17;;;;;;;-143.98;100.00;68091.63;5085192;28;20056;-85
2021/05/10 09:49:49;;;;;;;10.70;1.25;;;;;;;-143.98;100.00;68091.63;5055508;28;20150;-86
2021/05/10 09:52:31;;;;;;;5.90;1.20;;;;;;;-143.98;100.00;68091.63;5040355;28;20412;-86
2021/05/10 09:55:01;;;;;;;4.45;1.27;;;;;;;-143.98;100.00;68091.63;5041748;28;20238;-86
2021/05/10 09:57:30;;;;;;;6.32;1.10;;;;;;;-143.98;100.00;68091.63;5040472;28;20048;-86
2021/05/10 10:00:22;;;;;;;2.90;1.10;;;;;;;-143.98;100.00;68091.63;5040601;28;20124;-87
2021/05/10 10:03:03;;;;;;;4.70;0.95;;;;;;;-143.98;100.00;68091.63;5060170;28;20104;-86
2021/05/10 10:05:30;;;;;;;4.63;1.45;;;;;;;-143.98;100.00;68091.63;5045307;28;20068;-87
2021/05/10 10:08:13;;;;;;;2.15;0.85;;;;;;;-143.98;100.00;68091.63;5051419;28;20103;-86
2021/05/10 10:10:47;;;;;;;4.95;0.75;;;;;;;-143.98;100.00;68091.63;5050838;28;20597;-89
2021/05/10 10:13:20;;;;;;;4.03;1.00;;;;;;;-143.98;100.00;68091.63;5064620;28;20052;-86
2021/05/10 10:15:59;;;;;;;4.07;0.82;;;;;;;-143.98;100.00;68091.63;5061184;28;20056;-87
2021/05/10 10:18:45;;;;;;;4.25;0.82;;;;;;;-143.98;100.00;68091.63;5044797;28;20079;-87
2021/05/10 10:21:15;;;;;;;5.47;0.82;;;;;;;-143.98;100.00;68091.63;5042048;28;20127;-86
2021/05/10 10:24:11;;;;;;;4.05;1.00;;;;;;;-143.98;100.00;68091.63;5045593;28;20135;-86
2021/05/10 10:27:11;;;;;;;4.25;0.90;;;;;;;-143.98;100.00;68091.63;5047273;28;20060;-87
2021/05/10 10:29:53;;;;;;;3.72;0.85;;;;;;;-143.98;100.00;68091.63;5067067;28;20049;-87
2021/05/10 10:32:34;;;;;;;7.45;0.90;;;;;;;-143.98;100.00;68091.63;5058019;28;20059;-86
2021/05/10 10:35:15;;;;;;;4.47;0.90;;;;;;;-143.98;100.00;68091.63;5056787;28;20043;-87
2021/05/10 10:38:24;;;;;;;6.80;0.70;;;;;;;-143.98;100.00;68091.63;5053346;28;20059;-87
2021/05/10 10:41:16;;;;;;;6.05;0.95;;;;;;;-143.98;100.00;68091.63;5059332;28;20063;-87
2021/05/10 10:45:01;;;;;;;;;;;;;;;;;;;;;
2021/05/10 11:35:45;;;;;;;12.52;1.17;;;;;;;-143.98;100.00;68091.63;4968245;28;20111;-86
2021/05/10 11:47:55;;;;;;;;;;;;;;;;;;;;;
2021/05/10 11:51:18;;;;;;;;;;;;;;;;;;;;;
2021/05/10 11:55:20;;;;;;;;;;;;;;;;;;;;;
2021/05/10 11:58:44;;;;;;;7.43;0.80;;;;;;;-143.98;100.00;68091.63;4971104;28;20067;-86
2021/05/10 12:01:17;;;;;;;4.25;0.88;;;;;;;-143.98;100.00;68091.63;4959271;28;20091;-86
2021/05/10 12:04:01;;;;;;;8.20;1.00;;;;;;;-143.98;100.00;68091.63;4976762;28;20066;-86
2021/05/10 12:07:30;;;;;;;5.15;1.23;;;;;;;-143.98;100.00;68091.63;4967731;28;20066;-87
2021/05/10 12:13:34;;;;;;;6.18;1.15;;;;;;;-143.98;100.00;68091.63;4817459;29;20237;-84
2021/05/10 12:21:40;;;;;;;3.92;0.73;;;;;;;-143.98;100.00;68091.63;4819899;29;20214;-86
2021/05/10 12:25:10;;;;;;;4.32;0.82;;;;;;;-143.98;100.00;68091.63;4813578;29;20049;-87
2021/05/10 12:32:18;;;;;;;6.60;0.82;;;;;;;-143.98;100.00;68091.63;4794422;29;20066;-86
2021/05/10 12:35:08;;;;;;;12.13;1.70;;;;;;;-143.98;100.00;68091.63;4821031;29;20195;-86
2021/05/10 12:38:36;;;;;;;7.85;0.82;;;;;;;-143.98;100.00;68091.63;4900711;29;20117;-87
2021/05/10 12:41:38;;;;;;;;;;;;;;;;;;;;;
2021/05/10 12:44:37;;;;;;;3.05;0.55;;;;;;;-143.98;100.00;68091.63;4963134;28;20369;-86
2021/05/10 12:48:00;;;;;;;3.70;0.50;;;;;;;-143.98;100.00;68091.63;4955892;28;20068;-86
2021/05/10 12:51:30;;;;;;;5.00;0.57;;;;;;;-143.98;100.00;68091.63;4948745;28;20142;-86
2021/05/10 12:54:54;;;;;;;5.72;0.70;;;;;;;-143.98;100.00;68091.63;4954322;28;20526;-86
2021/05/10 12:57:41;;;;;;;5.57;0.70;;;;;;;-143.98;100.00;68091.63;4944958;28;20077;-86
2021/05/10 13:00:47;;;;;;;2.25;0.40;;;;;;;-143.98;100.00;68091.63;4963274;28;20054;-87
2021/05/10 13:03:59;;;;;;;0.85;0.38;;;;;;;-143.98;100.00;68091.63;4950650;28;20062;-85
2021/05/10 13:14:51;;;;;;;1.63;0.50;;;;;;;-143.98;100.00;68091.63;4967876;28;20050;-87
2021/05/10 13:32:46;;;;;;;5.30;0.65;;;;;;;-143.98;100.00;68091.63;4844990;29;20121;-86
2021/05/10 13:35:52;;;;;;;4.55;0.60;;;;;;;-143.98;100.00;68091.63;4917552;29;20090;-87
2021/05/10 13:38:48;;;;;;;5.82;0.65;;;;;;;-143.98;100.00;68091.63;4919797;29;20131;-85
2021/05/10 13:41:53;;;;;;;7.95;0.93;;;;;;;-143.98;100.00;68091.63;4894856;29;20455;-85
2021/05/10 13:45:18;;;;;;;5.20;0.70;;;;;;;-143.98;100.00;68091.63;4916779;29;20123;-86
2021/05/10 13:48:15;;;;;;;2.90;0.98;;;;;;;-143.98;100.00;68091.63;4899062;29;20052;-86
2021/05/10 13:51:16;;;;;;;7.05;0.77;;;;;;;-143.98;100.00;68091.63;4899699;29;20059;-86
2021/05/10 13:54:17;;;;;;;5.53;1.10;;;;;;;-143.98;100.00;68091.63;4883729;29;20063;-87